Time;durP1;ratioP1;P1;durP2;ratioP2;P2;SDS_P1;SDS_P2;PMS_P1;PMS_P2;Temp;Humidity;BMP_temperature;BMP_pressure;BME280_temperature;BME280_humidity;BME280_pressure;Samples;Min_cycle;Max_cycle;Signal;HPM_P1;HPM_P2
2020/12/25 00:02:04;;;;;;;0.88;0.80;;;;;;;4.75;80.44;95059.25;4771584;29;20187;-42
2020/12/25 00:04:31;;;;;;;0.80;0.70;;;;;;;4.70;80.42;95062.09;4771321;30;20055;-42
2020/12/25 00:06:57;;;;;;;0.82;0.60;;;;;;;4.68;80.47;95059.72;4771446;30;20418;-45
2020/12/25 00:09:24;;;;;;;0.63;0.60;;;;;;;4.65;79.88;95070.28;4770293;30;20062;-42
2020/12/25 00:11:50;;;;;;;0.40;0.40;;;;;;;4.48;79.37;95067.59;4770990;30;20059;-43
2020/12/25 00:14:16;;;;;;;0.52;0.52;;;;;;;4.32;81.63;95060.03;4771169;30;20060;-42
2020/12/25 00:16:43;;;;;;;0.52;0.50;;;;;;;4.23;81.25;95064.59;4771491;30;20056;-43
2020/12/25 00:19:09;;;;;;;0.52;0.50;;;;;;;4.50;79.53;95070.75;4771895;29;20143;-42
2020/12/25 00:21:37;;;;;;;1.85;0.98;;;;;;;4.28;79.30;95067.09;4770359;30;20055;-39
2020/12/25 00:24:04;;;;;;;2.33;0.93;;;;;;;4.39;79.01;95067.59;4769112;30;20063;-40
2020/12/25 00:26:32;;;;;;;0.63;0.45;;;;;;;4.37;79.11;95073.25;4769137;30;20063;-41
2020/12/25 00:29:00;;;;;;;0.47;0.47;;;;;;;4.36;79.42;95074.38;4768544;30;20427;-40
2020/12/25 00:31:29;;;;;;;0.70;0.60;;;;;;;4.29;79.98;95074.03;4769979;30;20059;-41
2020/12/25 00:34:00;;;;;;;1.23;0.70;;;;;;;4.22;80.38;95074.50;4768927;30;20068;-40
2020/12/25 00:36:28;;;;;;;0.60;0.60;;;;;;;4.26;80.39;95077.34;4769408;30;20056;-40
2020/12/25 00:38:55;;;;;;;0.60;0.50;;;;;;;4.24;80.19;95066.16;4768562;30;20059;-40
2020/12/25 00:41:22;;;;;;;0.95;0.70;;;;;;;4.36;80.16;95068.22;4769249;30;20055;-43
2020/12/25 00:43:49;;;;;;;0.60;0.60;;;;;;;4.47;79.97;95082.09;4768762;30;20063;-39
2020/12/25 00:46:16;;;;;;;0.70;0.60;;;;;;;4.61;79.32;95074.69;4769062;30;20479;-39
2020/12/25 00:48:43;;;;;;;0.93;0.70;;;;;;;4.71;78.77;95078.94;4768604;29;20138;-40
2020/12/25 00:51:27;;;;;;;0.75;0.75;;;;;;;4.61;80.38;95080.03;4767761;30;20139;-40
2020/12/25 00:53:54;;;;;;;0.90;0.60;;;;;;;4.48;79.75;95076.41;4767630;30;20191;-40
2020/12/25 00:56:28;;;;;;;1.10;1.00;;;;;;;4.51;78.87;95075.00;4767527;30;20452;-38
2020/12/25 00:58:55;;;;;;;1.00;0.80;;;;;;;4.62;78.87;95084.31;4767279;30;20051;-39
2020/12/25 01:01:26;;;;;;;1.10;0.70;;;;;;;4.31;79.73;95087.88;4767986;30;20047;-39
2020/12/25 01:04:11;;;;;;;1.02;0.82;;;;;;;4.40;79.95;95085.25;4768782;30;20067;-40
2020/12/25 01:06:37;;;;;;;0.98;0.88;;;;;;;4.50;79.34;95089.50;4767671;30;20055;-40
2020/12/25 01:09:03;;;;;;;0.85;0.80;;;;;;;4.39;79.15;95084.44;4771919;30;20052;-39
2020/12/25 01:11:30;;;;;;;1.13;1.00;;;;;;;4.61;79.52;95082.72;4775167;30;20288;-40
2020/12/25 01:13:56;;;;;;;2.30;0.98;;;;;;;4.62;78.36;95097.72;4775421;30;20052;-40
2020/12/25 01:16:23;;;;;;;1.30;1.00;;;;;;;4.65;78.66;95097.09;4776737;30;20146;-39
2020/12/25 01:18:49;;;;;;;1.48;1.20;;;;;;;4.82;77.95;95083.69;4777104;30;20060;-40
2020/12/25 01:21:17;;;;;;;1.00;0.90;;;;;;;4.64;78.48;95103.53;4777597;29;20085;-39
2020/12/25 01:23:44;;;;;;;0.80;0.80;;;;;;;4.72;78.34;95112.69;4775336;30;20063;-39
2020/12/25 01:26:11;;;;;;;1.38;1.10;;;;;;;4.56;78.65;95090.94;4774547;30;20439;-40
2020/12/25 01:28:37;;;;;;;1.60;1.20;;;;;;;4.51;79.44;95112.50;4774047;30;20060;-40
2020/12/25 01:31:05;;;;;;;1.23;1.08;;;;;;;4.73;79.30;95119.63;4774685;30;20062;-38
2020/12/25 01:33:33;;;;;;;2.92;1.20;;;;;;;4.76;79.17;95121.66;4774432;30;20093;-39
2020/12/25 01:36:04;;;;;;;1.42;1.15;;;;;;;4.52;79.88;95122.09;4774117;30;20058;-39
2020/12/25 01:38:30;;;;;;;1.80;1.30;;;;;;;4.60;79.01;95121.34;4773472;30;20062;-40
2020/12/25 01:40:57;;;;;;;1.70;1.40;;;;;;;4.61;79.05;95120.22;4774059;30;20083;-40
2020/12/25 01:43:24;;;;;;;1.63;1.30;;;;;;;4.50;80.18;95119.75;4774584;30;20056;-42
2020/12/25 01:45:52;;;;;;;2.08;1.52;;;;;;;4.71;79.05;95106.53;4774969;30;20067;-40
2020/12/25 01:48:18;;;;;;;1.35;1.20;;;;;;;4.62;78.75;95105.75;4773754;30;20067;-40
2020/12/25 01:50:45;;;;;;;1.83;1.40;;;;;;;4.83;78.77;95120.09;4775066;30;20068;-39
2020/12/25 01:53:16;;;;;;;1.40;1.25;;;;;;;4.92;77.83;95115.53;4774309;30;20490;-40
2020/12/25 01:55:43;;;;;;;2.10;1.60;;;;;;;4.91;78.03;95115.84;4774293;30;20062;-40
2020/12/25 01:58:10;;;;;;;2.03;1.63;;;;;;;4.69;78.97;95111.44;4773242;30;20467;-40
2020/12/25 02:00:37;;;;;;;2.10;1.80;;;;;;;4.68;78.57;95107.97;4772824;30;20056;-39
2020/12/25 02:03:03;;;;;;;2.60;1.90;;;;;;;4.68;79.03;95117.91;4773986;30;20051;-39
2020/12/25 02:05:32;;;;;;;2.42;1.70;;;;;;;4.55;79.55;95113.44;4773916;30;20060;-40
2020/12/25 02:08:00;;;;;;;2.80;2.00;;;;;;;4.67;79.49;95110.94;4773625;30;20511;-40
2020/12/25 02:10:26;;;;;;;2.50;1.98;;;;;;;4.71;79.46;95114.56;4773911;30;20066;-42
2020/12/25 02:12:53;;;;;;;3.35;2.28;;;;;;;4.77;78.62;95118.66;4773817;30;20490;-43
2020/12/25 02:15:20;;;;;;;3.67;1.98;;;;;;;4.67;78.87;95110.94;4773610;30;20060;-43
2020/12/25 02:17:47;;;;;;;2.78;2.05;;;;;;;4.66;79.26;95125.44;4773453;30;20130;-39
2020/12/25 02:20:14;;;;;;;2.58;1.90;;;;;;;4.74;78.46;95121.19;4771961;30;20144;-39
2020/12/25 02:22:41;;;;;;;2.85;2.10;;;;;;;4.69;78.97;95122.94;4770109;30;20112;-41
2020/12/25 02:25:07;;;;;;;2.70;2.03;;;;;;;4.57;79.74;95121.97;4770623;30;20083;-41
2020/12/25 02:27:35;;;;;;;3.13;2.05;;;;;;;4.77;78.88;95132.06;4755556;30;20056;-40
2020/12/25 02:30:04;;;;;;;3.25;2.28;;;;;;;4.60;79.49;95130.16;4772925;30;20079;-44
2020/12/25 02:32:31;;;;;;;2.80;2.20;;;;;;;4.55;79.14;95124.97;4771800;30;20089;-44
2020/12/25 02:35:14;;;;;;;3.00;2.28;;;;;;;4.73;78.95;95131.13;4772587;30;20081;-42
2020/12/25 02:37:41;;;;;;;4.18;2.20;;;;;;;4.85;78.08;95136.66;4771835;29;20135;-41
2020/12/25 02:40:08;;;;;;;2.90;2.28;;;;;;;4.75;78.64;95134.28;4772403;30;20120;-43
2020/12/25 02:42:35;;;;;;;3.30;2.53;;;;;;;4.85;78.92;95133.97;4772638;30;20059;-41
2020/12/25 02:45:04;;;;;;;3.20;2.40;;;;;;;4.80;78.49;95139.47;4772554;30;20083;-43
2020/12/25 02:47:31;;;;;;;3.25;2.45;;;;;;;4.78;79.05;95149.75;4772183;30;20051;-41
2020/12/25 02:49:58;;;;;;;3.15;2.35;;;;;;;4.55;79.98;95145.59;4772661;30;20062;-45
2020/12/25 02:52:25;;;;;;;3.70;2.53;;;;;;;4.78;79.15;95154.31;4771447;30;20051;-42
2020/12/25 02:54:52;;;;;;;3.50;2.50;;;;;;;4.77;79.41;95153.50;4772567;30;20135;-41
2020/12/25 02:57:18;;;;;;;4.55;2.55;;;;;;;4.61;80.37;95155.84;4771721;30;20095;-40
2020/12/25 02:59:45;;;;;;;4.28;3.00;;;;;;;4.41;80.61;95167.94;4771248;30;20052;-43
2020/12/25 03:02:11;;;;;;;2.75;2.05;;;;;;;4.21;79.86;95152.44;4772260;30;20058;-44
2020/12/25 03:04:38;;;;;;;3.30;2.40;;;;;;;4.02;80.40;95154.59;4772141;30;20612;-41
2020/12/25 03:07:04;;;;;;;3.58;2.47;;;;;;;3.79;81.04;95160.00;4772136;30;20404;-43
2020/12/25 03:09:31;;;;;;;2.25;1.75;;;;;;;3.72;80.61;95163.13;4770905;30;20544;-42
2020/12/25 03:11:57;;;;;;;2.13;1.65;;;;;;;3.63;81.18;95175.66;4770547;30;20063;-44
2020/12/25 03:14:23;;;;;;;2.17;1.50;;;;;;;3.44;80.40;95183.88;4771679;30;20143;-43
2020/12/25 03:16:50;;;;;;;2.03;1.50;;;;;;;3.39;80.21;95192.03;4773889;29;20059;-41
2020/12/25 03:19:16;;;;;;;1.50;1.17;;;;;;;3.18;80.86;95185.56;4773581;30;20058;-41
2020/12/25 03:21:43;;;;;;;1.77;1.13;;;;;;;3.17;80.14;95200.03;4771518;30;20422;-44
2020/12/25 03:24:10;;;;;;;2.20;1.60;;;;;;;3.03;80.44;95206.22;4771413;30;20059;-43
2020/12/25 03:26:37;;;;;;;1.90;1.30;;;;;;;2.85;80.11;95211.72;4771083;30;20514;-38
2020/12/25 03:29:03;;;;;;;1.27;1.00;;;;;;;2.76;79.80;95222.31;4770307;30;20059;-39
2020/12/25 03:31:30;;;;;;;2.08;1.20;;;;;;;2.26;80.83;95168.88;4770568;29;20063;-39
2020/12/25 03:33:56;;;;;;;2.00;1.10;;;;;;;2.71;80.67;95211.75;4772553;30;20514;-40
2020/12/25 03:36:23;;;;;;;1.77;1.20;;;;;;;2.83;80.66;95213.88;4772169;30;20052;-39
2020/12/25 03:38:49;;;;;;;2.22;1.13;;;;;;;2.75;79.77;95220.72;4770911;30;20056;-40
2020/12/25 03:41:16;;;;;;;0.90;0.70;;;;;;;2.46;80.57;95216.50;4769282;30;20083;-41
2020/12/25 03:43:42;;;;;;;1.23;1.10;;;;;;;2.05;83.00;95235.97;4769848;30;20055;-41
2020/12/25 03:46:09;;;;;;;1.13;0.88;;;;;;;2.26;82.22;95238.25;4770656;30;20135;-40
2020/12/25 03:48:36;;;;;;;0.80;0.80;;;;;;;2.25;82.03;95252.69;4769315;29;20068;-40
2020/12/25 03:51:02;;;;;;;0.82;0.65;;;;;;;2.28;81.40;95262.78;4769666;30;20503;-39
2020/12/25 03:53:28;;;;;;;0.93;0.68;;;;;;;2.30;81.31;95268.59;4769643;30;20470;-42
2020/12/25 03:55:55;;;;;;;1.33;0.90;;;;;;;2.27;81.72;95263.84;4769504;30;20138;-39
2020/12/25 03:58:21;;;;;;;1.75;1.10;;;;;;;2.49;80.97;95266.63;4769003;30;20143;-40
2020/12/25 04:00:48;;;;;;;1.20;0.85;;;;;;;2.19;81.81;95278.69;4769198;30;20075;-39
2020/12/25 04:03:14;;;;;;;0.90;0.80;;;;;;;2.31;81.63;95283.56;4769122;30;20098;-40
2020/12/25 04:05:41;;;;;;;0.80;0.80;;;;;;;2.53;80.69;95283.66;4769258;30;20067;-39
2020/12/25 04:08:07;;;;;;;1.00;0.85;;;;;;;2.44;80.93;95293.44;4768511;30;20060;-39
2020/12/25 04:10:33;;;;;;;0.95;0.70;;;;;;;2.32;80.96;95309.16;4769033;30;20060;-39
2020/12/25 04:13:00;;;;;;;0.70;0.70;;;;;;;2.29;81.06;95305.19;4769018;30;20138;-41
2020/12/25 04:15:27;;;;;;;0.95;0.80;;;;;;;2.08;82.00;95309.28;4769012;30;20066;-40
2020/12/25 04:17:54;;;;;;;0.80;0.70;;;;;;;1.97;82.10;95305.22;4768475;30;20060;-39
2020/12/25 04:20:20;;;;;;;0.90;0.70;;;;;;;1.95;82.23;95326.88;4769129;30;20412;-39
2020/12/25 04:22:46;;;;;;;0.70;0.70;;;;;;;1.98;81.80;95325.47;4769123;30;20142;-40
2020/12/25 04:25:13;;;;;;;1.30;1.08;;;;;;;1.91;81.49;95325.84;4768654;30;20090;-40
2020/12/25 04:27:39;;;;;;;1.48;0.90;;;;;;;1.96;82.23;95346.34;4768663;30;20506;-39
2020/12/25 04:30:06;;;;;;;1.17;0.98;;;;;;;1.90;82.40;95350.94;4769123;30;20078;-39
2020/12/25 04:32:33;;;;;;;1.48;1.10;;;;;;;1.91;81.93;95341.84;4769012;30;20511;-39
2020/12/25 04:34:59;;;;;;;1.33;1.02;;;;;;;1.79;83.29;95365.53;4768908;30;20088;-38
2020/12/25 04:37:27;;;;;;;1.23;1.05;;;;;;;1.90;82.67;95358.97;4767974;30;20060;-39
2020/12/25 04:39:53;;;;;;;1.15;1.00;;;;;;;1.74;82.92;95370.94;4768935;30;20060;-39
2020/12/25 04:42:19;;;;;;;2.35;1.30;;;;;;;1.81;83.75;95374.03;4768555;30;20071;-39
2020/12/25 04:44:47;;;;;;;2.10;1.10;;;;;;;1.75;83.31;95361.84;4768466;30;20430;-40
2020/12/25 04:47:13;;;;;;;1.20;1.10;;;;;;;2.10;82.08;95377.31;4768622;30;20095;-40
2020/12/25 04:49:40;;;;;;;2.17;1.27;;;;;;;2.08;82.19;95382.16;4768242;30;20474;-39
2020/12/25 04:52:07;;;;;;;2.08;1.40;;;;;;;1.95;82.41;95380.22;4768870;30;20060;-40
2020/12/25 04:54:33;;;;;;;1.52;1.20;;;;;;;1.84;82.32;95376.91;4769545;30;20059;-40
2020/12/25 04:57:00;;;;;;;2.05;1.40;;;;;;;1.58;84.01;95395.16;4770385;30;20111;-40
2020/12/25 04:59:30;;;;;;;1.73;1.23;;;;;;;1.64;84.06;95402.00;4768062;29;20135;-39
2020/12/25 05:02:00;;;;;;;1.77;1.30;;;;;;;1.70;84.30;95405.41;4769094;30;20459;-40
2020/12/25 05:04:27;;;;;;;2.40;1.50;;;;;;;1.51;84.48;95402.72;4768459;30;20095;-39
2020/12/25 05:06:54;;;;;;;1.85;1.40;;;;;;;1.62;84.37;95419.38;4768449;30;20079;-39
2020/12/25 05:09:24;;;;;;;1.95;1.40;;;;;;;1.60;84.60;95429.53;4767555;30;20527;-40
2020/12/25 05:11:55;;;;;;;2.20;1.40;;;;;;;1.42;84.90;95435.63;4768154;30;20055;-41
2020/12/25 05:14:27;;;;;;;2.83;1.40;;;;;;;1.81;83.54;95438.03;4768126;30;20605;-39
2020/12/25 05:16:55;;;;;;;1.60;1.20;;;;;;;1.76;83.46;95432.78;4767231;30;20113;-40
2020/12/25 05:19:29;;;;;;;1.50;1.10;;;;;;;1.70;83.27;95447.28;4767662;30;20434;-39
2020/12/25 05:22:00;;;;;;;1.98;1.42;;;;;;;1.64;83.70;95450.00;4768302;30;20485;-40
2020/12/25 05:24:35;;;;;;;1.83;1.30;;;;;;;1.51;84.04;95442.72;4768022;30;20083;-39
2020/12/25 05:27:02;;;;;;;2.92;1.48;;;;;;;1.42;84.40;95451.63;4768195;30;20052;-39
2020/12/25 05:29:29;;;;;;;2.25;1.48;;;;;;;1.46;84.56;95463.31;4767383;30;20059;-40
2020/12/25 05:31:55;;;;;;;2.90;1.77;;;;;;;1.60;84.32;95454.31;4768120;30;20060;-39
2020/12/25 05:34:23;;;;;;;2.28;1.50;;;;;;;1.60;83.82;95449.00;4766803;30;20062;-40
2020/12/25 05:37:05;;;;;;;2.40;1.50;;;;;;;1.74;83.71;95459.75;4767915;29;20135;-39
2020/12/25 05:39:37;;;;;;;2.33;1.65;;;;;;;1.64;84.06;95460.66;4767299;30;20130;-38
2020/12/25 05:42:06;;;;;;;1.90;1.40;;;;;;;1.54;84.26;95455.47;4767890;29;20400;-39
2020/12/25 05:44:40;;;;;;;3.08;1.88;;;;;;;1.32;84.71;95466.66;4767817;29;20422;-39
2020/12/25 05:47:08;;;;;;;2.60;1.70;;;;;;;1.41;84.67;95472.16;4768364;30;20109;-44
2020/12/25 05:49:34;;;;;;;3.83;2.45;;;;;;;1.47;84.57;95479.03;4766597;30;20055;-39
2020/12/25 05:52:00;;;;;;;3.03;1.88;;;;;;;1.68;83.79;95484.88;4767924;30;20142;-39
2020/12/25 05:54:28;;;;;;;3.20;2.08;;;;;;;1.72;83.51;95488.56;4766986;30;20066;-39
2020/12/25 05:56:58;;;;;;;3.72;2.38;;;;;;;1.63;83.21;95483.09;4771595;30;20079;-39
2020/12/25 05:59:32;;;;;;;3.00;1.95;;;;;;;1.55;84.01;95493.59;4771183;29;20135;-39
2020/12/25 06:02:04;;;;;;;3.50;2.30;;;;;;;1.57;84.08;95502.91;4772208;30;20063;-41
2020/12/25 06:04:32;;;;;;;3.50;2.30;;;;;;;1.61;83.96;95501.25;4772821;29;20412;-38
2020/12/25 06:07:00;;;;;;;4.70;2.25;;;;;;;1.50;84.17;95499.78;4771057;30;20058;-39
2020/12/25 06:09:31;;;;;;;4.70;2.60;;;;;;;1.56;83.96;95506.66;4770564;29;20487;-38
2020/12/25 06:11:59;;;;;;;4.75;2.80;;;;;;;1.47;84.42;95507.56;4771324;30;20067;-39
2020/12/25 06:14:26;;;;;;;4.70;2.58;;;;;;;1.38;84.92;95505.50;4771587;30;20060;-40
2020/12/25 06:17:02;;;;;;;4.18;2.65;;;;;;;1.42;84.39;95511.06;4773392;30;20055;-40
2020/12/25 06:19:35;;;;;;;4.60;2.60;;;;;;;1.57;84.20;95518.91;4770669;30;20070;-40
2020/12/25 06:22:08;;;;;;;5.00;2.85;;;;;;;1.63;84.06;95520.41;4771383;29;20423;-40
2020/12/25 06:24:37;;;;;;;4.40;2.70;;;;;;;1.42;84.32;95526.25;4770882;30;20052;-41
2020/12/25 06:27:05;;;;;;;4.65;3.00;;;;;;;1.58;84.12;95523.13;4771207;30;20515;-39
2020/12/25 06:29:32;;;;;;;4.40;2.70;;;;;;;1.66;83.13;95505.72;4770304;30;20055;-40
2020/12/25 06:32:00;;;;;;;4.55;2.78;;;;;;;1.43;84.86;95527.84;4771086;30;20063;-40
2020/12/25 06:34:42;;;;;;;4.82;2.92;;;;;;;1.52;84.56;95534.94;4771021;30;20059;-39
2020/12/25 06:37:11;;;;;;;4.63;2.58;;;;;;;1.59;83.75;95543.41;4770998;30;20056;-40
2020/12/25 06:39:37;;;;;;;4.72;2.70;;;;;;;1.51;84.09;95545.91;4769020;30;20059;-40
2020/12/25 06:42:04;;;;;;;4.80;2.67;;;;;;;1.56;84.32;95546.66;4772152;30;20062;-40
2020/12/25 06:44:34;;;;;;;3.83;2.33;;;;;;;1.67;82.81;95541.97;4772423;30;20052;-39
2020/12/25 06:47:05;;;;;;;3.75;2.58;;;;;;;1.54;83.52;95551.44;4773284;30;20416;-44
2020/12/25 06:49:37;;;;;;;3.80;2.30;;;;;;;1.43;84.20;95560.66;4772767;30;20081;-42
2020/12/25 06:52:03;;;;;;;3.95;2.33;;;;;;;1.51;84.24;95565.34;4772720;30;20067;-41
2020/12/25 06:54:41;;;;;;;4.35;2.53;;;;;;;1.64;83.70;95566.53;4757254;30;20477;-41
2020/12/25 06:57:10;;;;;;;4.03;2.33;;;;;;;1.57;83.38;95564.22;4772539;30;20158;-43
2020/12/25 06:59:40;;;;;;;4.22;2.53;;;;;;;1.57;83.57;95574.09;4771951;30;20081;-43
2020/12/25 07:02:12;;;;;;;3.95;2.55;;;;;;;1.70;83.33;95593.97;4772268;30;20142;-42
2020/12/25 07:04:39;;;;;;;5.38;2.63;;;;;;;1.37;84.82;95589.22;4772744;30;20063;-41
2020/12/25 07:07:11;;;;;;;4.22;2.58;;;;;;;1.82;83.34;95589.00;4771302;30;20149;-43
2020/12/25 07:09:42;;;;;;;4.00;2.55;;;;;;;1.73;83.50;95586.19;4771073;30;20075;-40
2020/12/25 07:12:13;;;;;;;4.70;2.88;;;;;;;1.56;83.40;95597.31;4768949;30;20138;-41
2020/12/25 07:14:40;;;;;;;4.00;2.50;;;;;;;1.66;82.91;95603.59;4770087;30;20060;-40
2020/12/25 07:17:08;;;;;;;4.32;2.58;;;;;;;1.59;82.80;95599.41;4770164;30;20052;-40
2020/12/25 07:19:35;;;;;;;3.90;2.40;;;;;;;1.72;83.09;95607.78;4772083;30;20060;-39
2020/12/25 07:22:03;;;;;;;3.75;2.60;;;;;;;1.62;83.00;95614.81;4772544;30;20232;-40
2020/12/25 07:24:30;;;;;;;4.60;2.88;;;;;;;1.55;83.15;95617.03;4770639;30;20068;-40
2020/12/25 07:26:56;;;;;;;4.70;2.83;;;;;;;1.67;83.21;95607.84;4771019;30;20502;-39
2020/12/25 07:29:23;;;;;;;4.32;2.90;;;;;;;1.61;82.75;95612.44;4770559;30;20113;-39
2020/12/25 07:31:52;;;;;;;4.22;2.78;;;;;;;1.73;82.75;95612.84;4770874;30;20132;-40
2020/12/25 07:34:23;;;;;;;4.03;2.85;;;;;;;1.76;82.20;95620.28;4770672;30;20105;-40
2020/12/25 07:36:52;;;;;;;4.47;3.05;;;;;;;1.89;82.02;95632.16;4770184;30;20598;-39
2020/12/25 07:39:20;;;;;;;4.50;3.15;;;;;;;1.83;82.36;95635.94;4768295;30;20083;-40
2020/12/25 07:41:47;;;;;;;4.22;2.78;;;;;;;1.71;82.93;95636.34;4770054;29;20091;-39
2020/12/25 07:44:16;;;;;;;5.20;3.42;;;;;;;1.79;82.74;95634.94;4769917;30;20517;-39
2020/12/25 07:46:43;;;;;;;4.75;3.30;;;;;;;1.71;82.55;95646.22;4770179;30;20503;-43
2020/12/25 07:49:10;;;;;;;5.05;3.13;;;;;;;1.86;82.25;95643.38;4769504;30;20056;-41
2020/12/25 07:51:37;;;;;;;4.95;3.25;;;;;;;1.73;82.39;95647.53;4769010;30;20080;-41
2020/12/25 07:54:04;;;;;;;4.68;3.20;;;;;;;1.92;82.05;95642.25;4770119;30;20081;-40
2020/12/25 07:56:36;;;;;;;4.55;3.20;;;;;;;1.85;81.92;95652.44;4769908;30;20582;-40
2020/12/25 07:59:04;;;;;;;5.50;3.22;;;;;;;1.75;82.13;95637.34;4767982;30;20547;-40
2020/12/25 08:01:32;;;;;;;4.68;3.10;;;;;;;1.93;81.97;95649.19;4769532;30;20090;-40
2020/12/25 08:04:00;;;;;;;4.97;3.35;;;;;;;2.00;81.90;95654.16;4769587;30;20067;-40
2020/12/25 08:06:29;;;;;;;5.97;3.85;;;;;;;1.56;83.53;95655.97;4769720;30;20190;-41
2020/12/25 08:09:09;;;;;;;5.22;3.67;;;;;;;1.67;83.25;95650.53;4769015;30;20422;-40
2020/12/25 08:11:37;;;;;;;5.45;3.42;;;;;;;1.59;83.56;95658.06;4769456;30;20086;-40
2020/12/25 08:14:14;;;;;;;5.57;3.60;;;;;;;1.93;82.72;95659.06;4769223;30;20067;-40
2020/12/25 08:16:42;;;;;;;6.85;3.40;;;;;;;1.96;82.22;95655.81;4769187;30;20134;-40
2020/12/25 08:19:09;;;;;;;5.07;3.58;;;;;;;2.07;81.51;95666.09;4768252;30;20128;-40
2020/12/25 08:21:40;;;;;;;5.97;3.92;;;;;;;2.20;80.76;95658.47;4769361;30;20055;-39
2020/12/25 08:24:09;;;;;;;5.18;3.70;;;;;;;2.25;81.12;95659.22;4769213;30;20487;-41
2020/12/25 08:26:38;;;;;;;5.75;3.67;;;;;;;2.26;80.45;95660.00;4769498;30;20059;-40
2020/12/25 08:29:05;;;;;;;7.93;3.42;;;;;;;1.89;81.78;95664.16;4769437;30;20113;-39
2020/12/25 08:31:39;;;;;;;8.75;4.43;;;;;;;2.02;82.21;95668.03;4769351;30;20114;-41
2020/12/25 08:34:13;;;;;;;7.55;3.72;;;;;;;1.87;82.62;95674.31;4768099;30;20056;-40
2020/12/25 08:36:40;;;;;;;5.05;3.25;;;;;;;2.03;80.87;95670.41;4769282;30;20109;-40
2020/12/25 08:39:07;;;;;;;5.78;3.75;;;;;;;1.85;81.45;95679.13;4768325;30;20422;-40
2020/12/25 08:41:34;;;;;;;4.70;3.33;;;;;;;1.84;82.27;95686.34;4769536;30;20557;-40
2020/12/25 08:44:09;;;;;;;6.22;4.13;;;;;;;1.44;83.16;95684.88;4770228;30;20146;-42
2020/12/25 08:46:36;;;;;;;6.20;4.43;;;;;;;1.59;84.22;95683.91;4769760;29;20138;-40
2020/12/25 08:49:02;;;;;;;6.65;3.75;;;;;;;1.89;82.94;95696.19;4768291;30;20060;-40
2020/12/25 08:51:33;;;;;;;5.47;3.72;;;;;;;1.94;82.48;95693.44;4768683;30;20083;-40
2020/12/25 08:53:59;;;;;;;6.20;3.30;;;;;;;1.95;82.24;95688.91;4769270;29;20134;-40
2020/12/25 08:56:27;;;;;;;4.90;3.35;;;;;;;2.23;81.55;95693.41;4769240;30;20486;-43
2020/12/25 08:59:07;;;;;;;6.78;3.40;;;;;;;2.15;81.18;95703.91;4768258;30;20121;-40
2020/12/25 09:01:36;;;;;;;4.63;3.25;;;;;;;1.94;80.98;95719.34;4768932;30;20066;-40
2020/12/25 09:04:03;;;;;;;7.18;3.60;;;;;;;1.77;82.15;95699.22;4767800;30;20066;-40
2020/12/25 09:06:30;;;;;;;5.47;3.58;;;;;;;1.59;83.23;95713.25;4769183;30;20059;-39
2020/12/25 09:08:56;;;;;;;4.60;3.25;;;;;;;1.87;81.63;95714.34;4768602;30;20134;-40
2020/12/25 09:11:25;;;;;;;6.47;3.50;;;;;;;2.20;80.89;95712.66;4769376;30;20442;-40
2020/12/25 09:13:52;;;;;;;7.38;3.38;;;;;;;2.08;81.98;95714.91;4769242;30;20060;-39
2020/12/25 09:16:19;;;;;;;5.43;3.70;;;;;;;2.05;82.22;95721.63;4771316;30;20059;-39
2020/12/25 09:18:46;;;;;;;5.60;3.35;;;;;;;2.22;81.50;95725.72;4767915;30;20134;-40
2020/12/25 09:21:13;;;;;;;5.25;2.88;;;;;;;2.32;79.99;95736.28;4768783;30;20430;-40
2020/12/25 09:23:40;;;;;;;5.00;3.42;;;;;;;2.21;80.46;95713.44;4768639;30;20125;-40
2020/12/25 09:26:12;;;;;;;4.82;3.10;;;;;;;2.21;80.01;95730.28;4787814;24;20133;-42
2020/12/25 09:28:40;;;;;;;5.00;3.45;;;;;;;1.64;82.78;95735.34;4768108;30;20078;-39
2020/12/25 09:31:10;;;;;;;4.72;3.00;;;;;;;1.90;81.77;95729.00;4772495;30;20139;-43
2020/12/25 09:33:36;;;;;;;4.70;3.20;;;;;;;1.81;82.18;95737.59;4772833;30;20059;-38
2020/12/25 09:36:04;;;;;;;5.03;3.40;;;;;;;1.91;82.09;95731.34;4773113;30;20090;-39
2020/12/25 09:38:31;;;;;;;4.35;2.75;;;;;;;1.85;81.76;95716.47;4771046;30;20110;-39
2020/12/25 09:40:58;;;;;;;6.60;2.88;;;;;;;2.17;81.32;95731.91;4773034;30;20063;-39
2020/12/25 09:43:26;;;;;;;4.28;2.20;;;;;;;2.18;78.92;95732.69;4772666;29;20123;-39
2020/12/25 09:45:52;;;;;;;4.78;2.45;;;;;;;2.21;79.75;95724.13;4772820;30;20108;-40
2020/12/25 09:48:18;;;;;;;4.45;2.97;;;;;;;2.26;80.86;95729.41;4772578;30;20138;-39
2020/12/25 09:50:45;;;;;;;3.70;2.70;;;;;;;2.49;79.57;95731.28;4772709;30;20060;-39
2020/12/25 09:53:11;;;;;;;4.60;2.92;;;;;;;2.55;80.13;95732.00;4772369;30;20508;-39
2020/12/25 09:55:40;;;;;;;4.20;2.47;;;;;;;2.20;80.61;95733.22;4772046;30;20088;-46
2020/12/25 09:58:08;;;;;;;4.90;2.63;;;;;;;2.23;79.95;95737.97;4771617;30;20147;-45
2020/12/25 10:00:34;;;;;;;5.07;3.05;;;;;;;2.12;81.07;95739.19;4772060;30;20048;-43
2020/12/25 10:03:01;;;;;;;6.15;3.17;;;;;;;1.99;80.84;95724.63;4772131;30;20076;-42
2020/12/25 10:05:28;;;;;;;4.63;2.88;;;;;;;1.92;81.17;95730.31;4771896;30;20220;-44
2020/12/25 10:07:54;;;;;;;4.65;2.80;;;;;;;1.95;81.42;95724.41;4771381;30;20056;-43
2020/12/25 10:10:22;;;;;;;4.10;2.63;;;;;;;1.85;81.50;95727.97;4772031;30;20080;-41
2020/12/25 10:12:50;;;;;;;5.70;3.00;;;;;;;2.04;81.02;95727.22;4772059;30;20520;-40
2020/12/25 10:15:21;;;;;;;4.05;2.92;;;;;;;1.98;82.03;95725.69;4771806;30;20592;-46
2020/12/25 10:17:47;;;;;;;4.38;2.83;;;;;;;2.37;80.11;95728.19;4770726;30;20055;-43
2020/12/25 10:20:14;;;;;;;4.55;2.92;;;;;;;2.14;79.97;95734.34;4771934;30;20059;-45
2020/12/25 10:22:40;;;;;;;5.50;2.92;;;;;;;1.84;81.49;95739.69;4772409;30;20134;-42
2020/12/25 10:25:07;;;;;;;5.95;2.95;;;;;;;2.05;81.02;95734.97;4770785;30;20519;-42
2020/12/25 10:27:40;;;;;;;3.80;2.53;;;;;;;1.93;80.69;95736.44;4771162;30;20085;-44
2020/12/25 10:30:07;;;;;;;4.13;2.60;;;;;;;2.04;79.64;95732.56;4771846;30;20143;-44
2020/12/25 10:32:37;;;;;;;7.32;3.38;;;;;;;1.89;80.58;95741.53;4772193;29;20474;-44
2020/12/25 10:35:03;;;;;;;3.65;1.95;;;;;;;1.61;80.49;95732.44;4771217;29;20117;-41
2020/12/25 10:37:30;;;;;;;4.75;2.42;;;;;;;1.81;81.08;95731.47;4770884;30;20052;-44
2020/12/25 10:39:57;;;;;;;5.15;3.28;;;;;;;2.09;80.85;95732.53;4771503;30;20125;-42
2020/12/25 10:42:23;;;;;;;4.57;3.17;;;;;;;1.96;79.04;95736.66;4770906;30;20070;-41
2020/12/25 10:44:50;;;;;;;3.55;2.10;;;;;;;1.70;80.19;95743.31;4771741;29;20066;-42
2020/12/25 10:47:16;;;;;;;3.63;2.20;;;;;;;1.75;79.68;95744.03;4771623;30;20079;-41
2020/12/25 10:49:43;;;;;;;3.80;2.35;;;;;;;1.76;79.92;95729.66;4769976;30;20060;-42
2020/12/25 10:52:09;;;;;;;4.53;2.63;;;;;;;1.78;79.43;95730.13;4771430;29;20138;-44
2020/12/25 10:54:36;;;;;;;3.85;2.00;;;;;;;1.90;78.70;95737.78;4770441;30;20472;-42
2020/12/25 10:57:03;;;;;;;9.52;3.45;;;;;;;1.76;79.31;95729.66;4772347;30;20120;-43
2020/12/25 10:59:29;;;;;;;3.53;2.33;;;;;;;1.74;79.01;95731.00;4772924;30;20443;-44
2020/12/25 11:01:55;;;;;;;4.60;2.75;;;;;;;1.77;78.78;95735.78;4774324;30;20127;-44
2020/12/25 11:04:22;;;;;;;3.60;2.47;;;;;;;1.84;78.25;95739.69;4774719;30;20545;-42
2020/12/25 11:06:48;;;;;;;5.18;2.70;;;;;;;1.61;78.84;95735.91;4773209;30;20083;-41
2020/12/25 11:09:15;;;;;;;4.07;2.40;;;;;;;1.89;79.75;95733.53;4773897;30;20089;-46
2020/12/25 11:11:42;;;;;;;4.00;2.70;;;;;;;1.70;78.85;95736.09;4772926;30;20083;-45
2020/12/25 11:14:09;;;;;;;5.13;2.60;;;;;;;1.89;79.43;95733.53;4773910;29;20151;-45
2020/12/25 11:16:37;;;;;;;4.25;2.38;;;;;;;1.85;78.96;95735.97;4773424;30;20063;-43
2020/12/25 11:19:08;;;;;;;5.75;2.70;;;;;;;2.03;78.74;95739.00;4773194;30;20047;-46
2020/12/25 11:21:35;;;;;;;4.20;2.50;;;;;;;2.23;77.38;95737.97;4773597;30;20060;-46
2020/12/25 11:24:04;;;;;;;4.05;2.67;;;;;;;2.42;77.12;95741.50;4773461;30;20070;-41
2020/12/25 11:26:32;;;;;;;4.57;2.80;;;;;;;2.40;76.98;95732.19;4772134;30;20079;-41
2020/12/25 11:29:01;;;;;;;4.75;2.90;;;;;;;2.28;77.87;95724.59;4770236;29;20051;-40
2020/12/25 11:31:28;;;;;;;4.90;2.78;;;;;;;2.22;77.62;95736.41;4769278;30;20052;-43
2020/12/25 11:33:55;;;;;;;4.57;2.80;;;;;;;2.23;77.81;95727.31;4770302;29;20142;-41
2020/12/25 11:36:24;;;;;;;4.82;2.65;;;;;;;2.15;78.25;95738.63;4770464;30;20087;-39
2020/12/25 11:38:51;;;;;;;4.47;2.75;;;;;;;2.06;78.98;95733.88;4770402;30;20056;-42
2020/12/25 11:41:21;;;;;;;4.57;2.88;;;;;;;2.21;78.37;95732.13;4770934;30;20091;-43
2020/12/25 11:43:48;;;;;;;5.65;3.15;;;;;;;2.03;79.02;95736.31;4770915;29;20056;-42
2020/12/25 11:46:15;;;;;;;4.65;3.13;;;;;;;2.22;78.06;95718.50;4771108;30;20119;-46